createdAt,value
2018-07-09T00:01:39.392Z,19.70
2018-07-09T01:26:06.664Z,19.70
2018-07-09T01:28:35.484Z,18.00
2018-07-09T01:31:04.304Z,17.90
2018-07-09T01:33:33.015Z,18.00
2018-07-09T01:36:01.718Z,18.10
2018-07-09T01:38:30.457Z,18.10
2018-07-09T01:40:59.156Z,18.10
2018-07-09T01:43:27.907Z,18.10
2018-07-09T01:45:56.600Z,18.10
2018-07-09T01:48:25.289Z,18.10
2018-07-09T01:50:54.065Z,18.10
2018-07-09T01:53:22.797Z,18.10
2018-07-09T01:55:51.521Z,18.00
2018-07-09T01:58:20.205Z,18.00
2018-07-09T02:00:48.894Z,18.00
2018-07-09T02:03:17.660Z,18.00
2018-07-09T02:05:46.379Z,18.00
2018-07-09T02:08:15.100Z,18.00
2018-07-09T02:10:43.817Z,18.00
2018-07-09T02:13:12.526Z,18.10
2018-07-09T02:15:41.253Z,18.10
2018-07-09T02:18:09.972Z,18.10
2018-07-09T02:20:38.827Z,18.10
2018-07-09T02:23:07.553Z,18.10
2018-07-09T02:25:36.288Z,18.10
2018-07-09T02:28:05.026Z,18.20
2018-07-09T02:30:33.805Z,18.20
2018-07-09T02:33:02.512Z,18.20
2018-07-09T02:35:31.197Z,18.20
2018-07-09T02:37:59.939Z,18.20
2018-07-09T02:40:28.678Z,18.30
2018-07-09T02:42:57.406Z,18.30
2018-07-09T02:45:26.121Z,18.40
2018-07-09T02:47:54.869Z,18.40
2018-07-09T02:50:23.629Z,18.50
2018-07-09T02:52:52.349Z,18.60
2018-07-09T02:55:21.066Z,18.70
2018-07-09T02:57:49.759Z,18.70
2018-07-09T03:00:18.570Z,18.80
2018-07-09T03:02:47.397Z,18.80
2018-07-09T03:05:16.147Z,18.90
2018-07-09T03:07:44.852Z,18.90
2018-07-09T03:10:13.590Z,18.90
2018-07-09T03:12:42.301Z,18.90
2018-07-09T03:15:11.018Z,18.90
2018-07-09T03:17:39.692Z,19.00
2018-07-09T03:20:08.404Z,18.90
2018-07-09T03:22:37.145Z,18.90
2018-07-09T03:25:05.885Z,18.90
2018-07-09T03:27:34.582Z,18.90
2018-07-09T03:30:03.308Z,19.00
2018-07-09T03:32:32.021Z,19.00
2018-07-09T03:35:01.845Z,19.00
2018-07-09T03:37:30.583Z,19.00
2018-07-09T03:39:59.301Z,19.00
2018-07-09T03:42:27.999Z,18.90
2018-07-09T03:44:56.706Z,19.00
2018-07-09T03:47:25.415Z,19.00
2018-07-09T03:49:54.154Z,19.00
2018-07-09T03:52:22.909Z,19.00
2018-07-09T03:54:51.650Z,19.00
2018-07-09T03:57:20.439Z,19.00
2018-07-09T03:59:49.189Z,19.00
2018-07-09T04:02:17.985Z,19.00
2018-07-09T04:04:46.621Z,19.00
2018-07-09T04:07:15.343Z,19.00
2018-07-09T04:09:44.053Z,18.90
2018-07-09T04:12:12.749Z,18.90
2018-07-09T04:14:41.574Z,18.90
2018-07-09T04:17:10.245Z,18.90
2018-07-09T04:19:38.979Z,18.90
2018-07-09T04:22:07.708Z,18.90
2018-07-09T04:24:36.443Z,18.90
2018-07-09T04:27:05.274Z,18.90
2018-07-09T04:29:33.988Z,18.90
2018-07-09T04:32:02.669Z,18.80
2018-07-09T04:34:31.356Z,18.80
2018-07-09T04:37:00.035Z,18.90
2018-07-09T04:39:28.766Z,19.00
2018-07-09T04:41:57.520Z,19.00
2018-07-09T04:44:26.785Z,19.00
2018-07-09T04:46:55.536Z,19.10
2018-07-09T04:49:24.285Z,19.10
2018-07-09T04:51:52.973Z,19.20
2018-07-09T04:54:21.667Z,19.30
2018-07-09T04:56:50.352Z,19.50
2018-07-09T04:59:19.016Z,19.60
2018-07-09T05:01:47.780Z,19.80
2018-07-09T05:04:16.465Z,20.00
2018-07-09T05:06:45.152Z,20.10
2018-07-09T05:09:13.868Z,20.00
2018-07-09T05:11:42.587Z,20.00
2018-07-09T05:14:11.289Z,20.00
2018-07-09T05:16:40.021Z,20.00
2018-07-09T05:19:08.742Z,20.20
2018-07-09T05:21:37.466Z,20.40
2018-07-09T05:24:06.920Z,20.60
2018-07-09T05:26:35.704Z,20.70
2018-07-09T05:31:32.853Z,20.90
2018-07-09T05:34:01.558Z,21.00
2018-07-09T05:36:30.306Z,21.10
2018-07-09T05:38:59.282Z,21.20
2018-07-09T05:41:28.787Z,21.40
2018-07-09T05:43:57.573Z,21.40
2018-07-09T05:46:26.303Z,21.60
2018-07-09T05:48:55.132Z,21.70
2018-07-09T05:51:23.816Z,21.90
2018-07-09T05:53:52.604Z,21.80
2018-07-09T05:56:21.346Z,21.80
2018-07-09T05:58:50.119Z,21.90
2018-07-09T06:01:18.824Z,22.10
2018-07-09T06:03:47.614Z,22.20
2018-07-09T06:06:16.320Z,22.40
2018-07-09T06:08:46.081Z,22.50
2018-07-09T06:11:14.935Z,22.50
2018-07-09T06:13:43.701Z,22.70
2018-07-09T06:16:12.594Z,22.80
2018-07-09T06:18:41.496Z,22.90
2018-07-09T06:21:10.241Z,23.20
2018-07-09T06:23:39.101Z,23.50
2018-07-09T06:26:07.900Z,23.90
2018-07-09T06:28:36.681Z,24.00
2018-07-09T06:31:05.460Z,24.20
2018-07-09T06:33:34.224Z,24.30
2018-07-09T06:36:03.031Z,24.60
2018-07-09T06:38:31.745Z,24.90
2018-07-09T06:41:00.508Z,25.00
2018-07-09T06:43:29.211Z,25.00
2018-07-09T06:45:57.941Z,25.10
2018-07-09T06:48:26.686Z,25.70
2018-07-09T06:50:55.381Z,26.10
2018-07-09T06:53:24.127Z,26.50
2018-07-09T06:55:52.822Z,26.80
2018-07-09T06:58:21.602Z,27.40
2018-07-09T07:00:50.357Z,27.50
2018-07-09T07:03:19.077Z,28.00
2018-07-09T07:05:47.775Z,28.10
2018-07-09T07:08:16.481Z,27.20
2018-07-09T07:10:45.223Z,25.80
2018-07-09T07:13:13.949Z,25.00
2018-07-09T07:15:42.732Z,24.50
2018-07-09T07:18:11.412Z,24.00
2018-07-09T07:20:40.117Z,24.50
2018-07-09T07:23:08.885Z,25.60
2018-07-09T07:28:05.915Z,26.60
2018-07-09T07:30:34.680Z,26.60
2018-07-09T07:33:03.361Z,27.30
2018-07-09T07:35:32.180Z,27.60
2018-07-09T07:38:00.928Z,27.50
2018-07-09T07:40:29.695Z,27.70
2018-07-09T07:42:58.476Z,27.80
2018-07-09T07:45:27.227Z,27.70
2018-07-09T07:47:55.915Z,27.30
2018-07-09T07:50:24.817Z,26.90
2018-07-09T07:52:53.444Z,27.30
2018-07-09T07:55:22.125Z,27.70
2018-07-09T07:57:50.959Z,27.60
2018-07-09T08:00:19.708Z,28.50
2018-07-09T08:02:48.546Z,29.30
2018-07-09T08:05:17.234Z,28.70
2018-07-09T08:07:45.993Z,28.70
2018-07-09T08:10:14.727Z,29.50
2018-07-09T08:15:12.189Z,29.00
2018-07-09T08:17:40.973Z,29.40
2018-07-09T08:20:09.660Z,28.60
2018-07-09T08:22:38.390Z,28.30
2018-07-09T08:25:07.265Z,28.70
2018-07-09T08:27:35.861Z,29.40
2018-07-09T08:30:04.704Z,30.40
2018-07-09T08:32:33.444Z,30.80
2018-07-09T08:35:02.149Z,30.70
2018-07-09T08:37:30.852Z,31.10
2018-07-09T08:39:59.589Z,31.40
2018-07-09T08:42:28.308Z,31.40
2018-07-09T08:44:57.088Z,31.20
2018-07-09T08:47:25.794Z,31.80
2018-07-09T08:49:54.525Z,31.90
2018-07-09T08:52:23.308Z,32.10
2018-07-09T08:54:52.039Z,32.50
2018-07-09T08:57:20.741Z,32.80
2018-07-09T08:59:49.449Z,31.70
2018-07-09T09:02:18.153Z,30.80
2018-07-09T09:04:47.084Z,30.60
2018-07-09T09:12:12.441Z,30.50
2018-07-09T09:14:41.180Z,30.60
2018-07-09T09:17:09.908Z,30.80
2018-07-09T09:19:38.616Z,30.40
2018-07-09T09:22:07.369Z,30.00
2018-07-09T09:27:04.537Z,30.30
2018-07-09T09:29:33.253Z,30.80
2018-07-09T09:32:01.987Z,30.40
2018-07-09T09:34:30.677Z,30.10
2018-07-09T09:36:59.420Z,28.90
2018-07-09T09:39:28.663Z,28.30
2018-07-09T09:41:57.999Z,27.90
2018-07-09T09:44:26.714Z,27.90
2018-07-09T09:46:55.462Z,27.40
2018-07-09T09:49:24.168Z,27.50
2018-07-09T09:51:52.984Z,27.10
2018-07-09T09:54:21.864Z,27.00
2018-07-09T09:56:50.905Z,26.90
2018-07-09T09:59:19.645Z,27.20
2018-07-09T10:01:48.376Z,28.10
2018-07-09T10:04:17.105Z,28.00
2018-07-09T10:06:45.815Z,27.30
2018-07-09T10:09:14.525Z,27.20
2018-07-09T10:11:43.201Z,27.20
2018-07-09T10:14:11.920Z,27.90
2018-07-09T10:16:40.630Z,28.40
2018-07-09T10:19:09.376Z,28.70
2018-07-09T10:21:38.093Z,28.90
2018-07-09T10:24:06.856Z,28.90
2018-07-09T10:26:35.577Z,29.10
2018-07-09T10:29:04.338Z,29.20
2018-07-09T10:31:33.017Z,29.60
2018-07-09T10:34:01.700Z,29.20
2018-07-09T10:36:30.416Z,28.70
2018-07-09T10:38:59.180Z,28.50
2018-07-09T10:41:27.844Z,28.20
2018-07-09T10:43:56.566Z,28.20
2018-07-09T10:46:25.249Z,27.90
2018-07-09T10:48:53.915Z,27.90
2018-07-09T10:51:22.649Z,28.20
2018-07-09T10:53:51.301Z,28.70
2018-07-09T10:56:19.965Z,28.70
2018-07-09T10:58:48.772Z,29.00
2018-07-09T11:01:17.550Z,29.40
2018-07-09T11:03:46.310Z,30.00
2018-07-09T11:06:15.045Z,30.00
2018-07-09T11:08:43.686Z,29.60
2018-07-09T11:11:12.385Z,29.60
2018-07-09T11:13:41.157Z,29.90
2018-07-09T11:16:09.880Z,30.20
2018-07-09T11:18:38.557Z,29.80
2018-07-09T11:21:07.365Z,29.50
2018-07-09T11:23:36.109Z,29.00
2018-07-09T11:26:04.804Z,28.60
2018-07-09T11:28:33.545Z,28.10
2018-07-09T11:31:02.256Z,27.70
2018-07-09T11:33:30.950Z,27.80
2018-07-09T11:36:01.008Z,27.90
2018-07-09T11:38:29.748Z,28.00
2018-07-09T11:40:58.517Z,27.80
2018-07-09T11:43:27.378Z,27.90
2018-07-09T11:45:56.113Z,27.20
2018-07-09T11:48:24.792Z,27.20
2018-07-09T11:50:53.523Z,27.10
2018-07-09T11:53:22.229Z,26.70
2018-07-09T11:55:50.929Z,26.80
2018-07-09T11:58:19.601Z,26.60
2018-07-09T12:00:48.335Z,26.90
2018-07-09T12:03:17.025Z,26.90
2018-07-09T12:05:45.752Z,26.90
2018-07-09T12:08:14.452Z,26.80
2018-07-09T12:10:43.166Z,27.00
2018-07-09T12:13:11.881Z,27.20
2018-07-09T12:15:40.569Z,27.10
2018-07-09T12:18:09.309Z,27.00
2018-07-09T12:20:38.007Z,27.00
2018-07-09T12:23:06.656Z,26.90
2018-07-09T12:25:35.352Z,26.60
2018-07-09T12:28:04.154Z,26.30
2018-07-09T12:30:32.848Z,26.10
2018-07-09T12:33:01.560Z,26.00
2018-07-09T12:35:30.236Z,25.90
2018-07-09T12:37:59.048Z,25.90
2018-07-09T12:40:27.787Z,26.00
2018-07-09T12:42:56.484Z,26.10
2018-07-09T12:45:25.138Z,26.00
2018-07-09T12:47:53.824Z,26.10
2018-07-09T12:50:22.932Z,26.20
2018-07-09T12:52:51.613Z,26.10
2018-07-09T12:55:20.310Z,26.00
2018-07-09T12:57:49.126Z,25.80
2018-07-09T13:00:17.821Z,25.80
2018-07-09T13:02:46.556Z,25.90
2018-07-09T13:05:15.318Z,25.90
2018-07-09T13:07:44.028Z,26.20
2018-07-09T13:10:12.741Z,26.50
2018-07-09T13:12:41.447Z,26.40
2018-07-09T13:15:10.164Z,26.20
2018-07-09T13:17:38.848Z,26.40
2018-07-09T13:20:07.557Z,26.50
2018-07-09T13:22:36.220Z,26.40
2018-07-09T13:25:04.997Z,26.40
2018-07-09T13:27:33.777Z,26.40
2018-07-09T13:30:02.553Z,26.40
2018-07-09T13:32:31.321Z,26.60
2018-07-09T13:35:00.115Z,26.70
2018-07-09T13:37:28.788Z,26.70
2018-07-09T13:39:57.574Z,26.70
2018-07-09T13:42:26.289Z,26.60
2018-07-09T13:44:55.109Z,26.50
2018-07-09T13:47:23.832Z,26.60
2018-07-09T13:49:52.641Z,26.40
2018-07-09T13:52:21.416Z,26.10
2018-07-09T13:54:50.168Z,26.20
2018-07-09T13:57:18.960Z,26.20
2018-07-09T13:59:47.676Z,26.20
2018-07-09T14:02:16.324Z,26.30
2018-07-09T14:04:45.048Z,26.30
2018-07-09T14:07:13.794Z,26.20
2018-07-09T14:09:42.495Z,26.20
2018-07-09T14:12:11.262Z,26.20
2018-07-09T14:14:39.944Z,26.00
2018-07-09T14:17:08.662Z,26.00
2018-07-09T14:20:42.665Z,26.10
2018-07-09T14:23:12.726Z,26.10
2018-07-09T14:25:41.992Z,25.90
2018-07-09T14:28:10.858Z,25.90
2018-07-09T14:30:39.688Z,25.80
2018-07-09T14:33:08.658Z,25.80
2018-07-09T14:35:37.659Z,25.90
2018-07-09T14:38:06.387Z,25.90
2018-07-09T14:40:35.196Z,25.80
2018-07-09T14:43:04.148Z,25.80
2018-07-09T14:45:32.869Z,25.60
2018-07-09T14:48:01.643Z,25.50
2018-07-09T14:50:30.396Z,25.40
2018-07-09T14:52:59.273Z,25.40
2018-07-09T14:55:28.025Z,25.40
2018-07-09T14:57:56.818Z,25.40
2018-07-09T15:00:25.651Z,25.40
2018-07-09T15:02:54.412Z,25.30
2018-07-09T15:05:23.105Z,25.20
2018-07-09T15:07:51.845Z,25.30
2018-07-09T15:10:20.558Z,25.20
2018-07-09T15:12:49.219Z,25.20
2018-07-09T15:15:17.944Z,25.20
2018-07-09T15:17:46.742Z,25.30
2018-07-09T15:20:15.433Z,25.30
2018-07-09T15:22:44.114Z,25.30
2018-07-09T15:25:12.908Z,25.30
2018-07-09T15:27:41.758Z,25.30
2018-07-09T15:30:10.585Z,25.30
2018-07-09T15:32:39.362Z,25.40
2018-07-09T15:35:08.062Z,25.40
2018-07-09T15:37:36.837Z,25.30
2018-07-09T15:40:05.600Z,25.30
2018-07-09T15:42:34.368Z,25.20
2018-07-09T15:45:03.117Z,25.20
2018-07-09T15:47:31.790Z,25.20
2018-07-09T15:50:00.460Z,25.10
2018-07-09T15:52:29.160Z,25.20
2018-07-09T15:54:58.445Z,25.20
2018-07-09T15:57:27.123Z,25.20
2018-07-09T15:59:55.854Z,25.20
2018-07-09T16:02:24.594Z,25.10
2018-07-09T16:04:53.263Z,25.00
2018-07-09T16:07:21.968Z,24.90
2018-07-09T16:09:50.837Z,24.90
2018-07-09T16:12:19.534Z,24.90
2018-07-09T16:14:48.220Z,24.80
2018-07-09T16:17:16.924Z,24.80
2018-07-09T16:19:45.612Z,24.80
2018-07-09T16:22:14.577Z,24.80
2018-07-09T16:24:43.355Z,24.70
2018-07-09T16:27:12.087Z,24.70
2018-07-09T16:29:40.805Z,24.70
2018-07-09T16:32:09.538Z,24.60
2018-07-09T16:34:41.271Z,24.60
2018-07-09T16:37:10.150Z,24.60
2018-07-09T16:39:38.846Z,24.50
2018-07-09T16:42:08.532Z,24.40
2018-07-09T16:44:37.234Z,24.40
2018-07-09T16:47:06.045Z,24.40
2018-07-09T16:49:34.677Z,24.50
2018-07-09T16:52:03.621Z,24.40
2018-07-09T16:57:00.737Z,24.40
2018-07-09T16:59:29.493Z,24.30
2018-07-09T17:01:58.804Z,24.30
2018-07-09T17:04:27.564Z,24.20
2018-07-09T17:06:56.361Z,24.20
2018-07-09T17:09:26.127Z,24.20
2018-07-09T17:11:54.856Z,24.20
2018-07-09T17:14:25.309Z,24.20
2018-07-09T17:16:54.011Z,24.10
2018-07-09T17:19:22.841Z,24.10
2018-07-09T17:21:51.593Z,23.90
2018-07-09T17:24:20.694Z,23.80
2018-07-09T17:29:17.852Z,23.80
2018-07-09T17:31:46.624Z,23.80
2018-07-09T17:34:15.408Z,23.70
2018-07-09T17:36:44.273Z,23.60
2018-07-09T17:39:12.987Z,23.60
2018-07-09T17:41:41.702Z,23.50
2018-07-09T17:44:10.443Z,23.50
2018-07-09T17:46:39.304Z,23.50
2018-07-09T17:49:08.106Z,23.50
2018-07-09T17:51:37.217Z,23.60
2018-07-09T17:54:06.017Z,23.70
2018-07-09T17:56:34.908Z,23.80
2018-07-09T17:59:03.697Z,23.80
2018-07-09T18:01:32.549Z,23.90
2018-07-09T18:04:01.302Z,23.80
2018-07-09T18:06:30.213Z,23.70
2018-07-09T18:08:58.988Z,23.50
2018-07-09T18:11:27.763Z,23.40
2018-07-09T18:13:56.515Z,23.40
2018-07-09T18:16:25.251Z,23.30
2018-07-09T18:18:53.911Z,23.30
2018-07-09T18:21:22.686Z,23.20
2018-07-09T18:23:52.191Z,23.10
2018-07-09T18:26:20.898Z,23.10
2018-07-09T18:28:50.147Z,22.90
2018-07-09T18:31:19.158Z,22.90
2018-07-09T18:33:48.075Z,22.80
2018-07-09T18:36:16.827Z,22.70
2018-07-09T18:38:45.647Z,22.60
2018-07-09T18:41:14.305Z,22.60
2018-07-09T18:43:43.227Z,22.50
2018-07-09T18:46:12.097Z,22.40
2018-07-09T18:48:40.848Z,22.40
2018-07-09T18:51:09.642Z,22.40
2018-07-09T18:53:38.484Z,22.30
2018-07-09T18:56:07.263Z,22.20
2018-07-09T18:58:36.099Z,22.20
2018-07-09T19:01:04.843Z,22.20
2018-07-09T19:03:33.544Z,22.10
2018-07-09T19:06:07.314Z,22.10
2018-07-09T19:08:36.049Z,22.00
2018-07-09T19:11:04.754Z,21.90
2018-07-09T19:13:33.570Z,21.90
2018-07-09T19:16:02.348Z,21.80
2018-07-09T19:18:42.270Z,21.70
2018-07-09T19:21:32.449Z,21.70
2018-07-09T19:24:00.418Z,21.60
2018-07-09T19:26:27.871Z,21.50
2018-07-09T19:28:55.310Z,21.50
2018-07-09T19:31:22.769Z,21.30
2018-07-09T19:33:50.210Z,21.30
2018-07-09T19:36:17.704Z,21.20
2018-07-09T19:38:45.175Z,21.20
2018-07-09T19:41:12.724Z,21.20
2018-07-09T19:43:40.240Z,21.10
2018-07-09T19:46:07.719Z,21.10
2018-07-09T19:48:35.971Z,21.10
2018-07-09T19:51:03.418Z,21.00
2018-07-09T19:53:31.092Z,21.00
2018-07-09T19:56:00.723Z,20.90
2018-07-09T19:58:28.164Z,20.80
2018-07-09T20:00:56.477Z,20.70
2018-07-09T20:03:24.149Z,20.60
2018-07-09T20:05:52.640Z,20.50
2018-07-09T20:08:20.117Z,20.40
2018-07-09T20:11:51.364Z,20.30
2018-07-09T20:14:24.321Z,20.30
2018-07-09T20:16:57.115Z,20.20
2018-07-09T20:21:52.505Z,20.10
2018-07-09T20:24:19.962Z,20.00
2018-07-09T20:26:47.416Z,20.00
2018-07-09T20:29:14.841Z,19.80
2018-07-09T20:31:42.291Z,19.90
2018-07-09T20:34:09.854Z,19.80
2018-07-09T20:36:37.285Z,19.70
2018-07-09T20:39:05.856Z,19.70
2018-07-09T20:41:33.364Z,19.70
2018-07-09T20:44:01.200Z,19.70
2018-07-09T20:46:28.639Z,19.60
2018-07-09T20:48:56.373Z,19.50
2018-07-09T20:51:23.836Z,19.40
2018-07-09T20:53:51.288Z,19.40
2018-07-09T20:56:18.988Z,19.30
2018-07-09T20:58:46.465Z,19.30
2018-07-09T21:01:13.894Z,19.20
2018-07-09T21:03:41.444Z,19.10
2018-07-09T21:06:08.937Z,19.00
2018-07-09T21:08:36.367Z,19.00
2018-07-09T21:11:03.824Z,18.90
2018-07-09T21:13:32.275Z,18.80
2018-07-09T21:15:59.896Z,18.80
2018-07-09T21:18:27.344Z,18.70
2018-07-09T21:20:54.780Z,18.60
2018-07-09T21:23:22.234Z,18.50
2018-07-09T21:25:49.710Z,18.50
2018-07-09T21:28:17.148Z,18.50
2018-07-09T21:30:44.572Z,18.40
2018-07-09T21:33:12.033Z,18.30
2018-07-09T21:35:39.485Z,18.20
2018-07-09T21:38:06.945Z,18.10
2018-07-09T21:40:34.426Z,18.00
2018-07-09T21:43:01.864Z,18.00
2018-07-09T21:45:29.305Z,18.00
2018-07-09T21:47:59.211Z,17.90
2018-07-09T21:50:24.235Z,17.80
2018-07-09T21:52:51.663Z,17.70
2018-07-09T21:55:19.120Z,17.70
2018-07-09T21:57:46.545Z,17.60
2018-07-09T22:00:13.974Z,17.60
2018-07-09T22:02:41.463Z,17.50
2018-07-09T22:05:08.887Z,17.50
2018-07-09T22:10:04.024Z,17.40
2018-07-09T22:12:31.465Z,17.40
2018-07-09T22:14:58.899Z,17.30
2018-07-09T22:17:26.660Z,17.30
2018-07-09T22:19:54.093Z,17.20
2018-07-09T22:22:21.544Z,17.20
2018-07-09T22:24:49.034Z,17.20
2018-07-09T22:27:16.484Z,17.20
2018-07-09T22:29:43.924Z,17.10
2018-07-09T22:32:12.628Z,17.10
2018-07-09T22:34:41.559Z,17.10
2018-07-09T22:37:10.237Z,17.10
2018-07-09T22:39:39.009Z,17.00
2018-07-09T22:42:07.678Z,17.10
2018-07-09T22:44:36.362Z,17.00
2018-07-09T22:47:05.087Z,17.00
2018-07-09T22:49:33.811Z,17.10
2018-07-09T22:52:02.465Z,17.10
2018-07-09T22:54:31.244Z,17.20
2018-07-09T22:56:59.905Z,17.30
2018-07-09T22:59:28.593Z,17.30
2018-07-09T23:01:57.305Z,17.40
2018-07-09T23:04:25.955Z,17.50
2018-07-09T23:06:54.605Z,17.60
2018-07-09T23:09:58.363Z,17.70
2018-07-09T23:12:38.194Z,17.80
2018-07-09T23:15:30.413Z,17.90
2018-07-09T23:18:10.697Z,17.90
2018-07-09T23:20:50.600Z,18.00
2018-07-09T23:23:18.025Z,18.00
2018-07-09T23:25:45.469Z,18.10
2018-07-09T23:28:13.213Z,18.10
2018-07-09T23:30:40.644Z,18.20
2018-07-09T23:33:08.063Z,18.20
2018-07-09T23:35:35.533Z,18.30
2018-07-09T23:38:02.987Z,18.30
2018-07-09T23:40:30.421Z,18.40
2018-07-09T23:42:57.897Z,18.40
2018-07-09T23:45:25.320Z,18.40
2018-07-09T23:47:52.757Z,18.40
2018-07-09T23:50:20.225Z,18.50
2018-07-09T23:52:47.666Z,18.50
2018-07-09T23:55:15.116Z,18.40
